»·PEaware :: UAL1517 CYVR-KSFO

UAL1517 :: CYVR-KSFO

FLIGHT INFORMATION

Flight Status: Arrived
Operator:
United Airlines
More flights by this operator :: More flights under this callsign
Pilot: Henderson P. (1210)
Aircraft: AIRBUS A320
(A320)
More flights by this aircraft type
Origin: CYVR Vancouver Intl
Canada
Destination: KSFO San Francisco Intl
United States
More flights between these airports :: More routes between these airports
Route: YYJ J589 ELMAA J589 CVO J589 RBG ENVIE MLBEC BDEGA3
File this flight plan on PilotEdge
Remarks:
Altitude:
(Current/Filed)
33,000ft
Speed:
(Current/Filed)
431kts
Departed: 12-Oct-18 06:30 PM
Arrived: 12-Oct-18 08:20 PM
Distance/Time
Traveled:
695nm/1:49
Distance/Time
To Go:
Arrived

Flight Plot

Page will automatically refresh every two minutes.

Flight plan parsing failed; only flown route is shown


Map Options




Map Legend


Flown Route
Filed Route
Departure Airport
Arrival Airport
Navaid (VOR, NDB)
Fix

Horizontal Profiles

Position Reports

Time Latitude Longitude Heading Altitude Ground
Speed
12-Oct-18 17:47 49.198178 -123.172835 243 28ft 0kts
12-Oct-18 17:48 49.198178 -123.172835 243 28ft 0kts
12-Oct-18 17:49 49.198178 -123.172835 243 28ft 0kts
12-Oct-18 17:50 49.198178 -123.172835 243 28ft 0kts
12-Oct-18 17:57 49.198177 -123.172835 243 28ft 0kts
12-Oct-18 17:58 49.198177 -123.172835 243 28ft 0kts
12-Oct-18 17:59 49.198177 -123.172835 243 28ft 0kts
12-Oct-18 18:00 49.198177 -123.172835 243 28ft 0kts
12-Oct-18 18:01 49.198177 -123.172835 243 28ft 0kts
12-Oct-18 18:02 49.198177 -123.172835 243 28ft 0kts
12-Oct-18 18:03 49.198177 -123.172835 243 28ft 0kts
12-Oct-18 18:04 49.198177 -123.172835 243 28ft 0kts
12-Oct-18 18:05 49.198177 -123.172835 243 28ft 0kts
12-Oct-18 18:06 49.198177 -123.172835 243 28ft 0kts
12-Oct-18 18:07 49.198177 -123.172835 243 28ft 0kts
12-Oct-18 18:08 49.198177 -123.172835 243 28ft 0kts
12-Oct-18 18:09 49.198177 -123.172835 243 28ft 0kts
12-Oct-18 18:10 49.198177 -123.172835 243 28ft 0kts
12-Oct-18 18:11 49.198177 -123.172835 243 28ft 0kts
12-Oct-18 18:12 49.198177 -123.172835 243 28ft 0kts
12-Oct-18 18:13 49.198177 -123.172835 243 28ft 0kts
12-Oct-18 18:14 49.198177 -123.172835 243 28ft 0kts
12-Oct-18 18:15 49.198177 -123.172835 243 28ft 0kts
12-Oct-18 18:16 49.198177 -123.172835 243 28ft 0kts
12-Oct-18 18:17 49.198177 -123.172835 243 28ft 0kts
12-Oct-18 18:18 49.198189 -123.172799 243 28ft 1kts
12-Oct-18 18:19 49.198316 -123.171932 322 28ft 2kts
12-Oct-18 18:20 49.198115 -123.171877 0 28ft 0kts
12-Oct-18 18:21 49.198115 -123.171877 0 28ft 0kts
12-Oct-18 18:22 49.198116 -123.171877 0 28ft 0kts
12-Oct-18 18:23 49.198141 -123.171877 0 28ft 0kts
12-Oct-18 18:24 49.199010 -123.171643 40 28ft 5kts
12-Oct-18 18:25 49.200062 -123.174796 279 28ft 25kts
12-Oct-18 18:26 49.201103 -123.184895 238 28ft 15kts
12-Oct-18 18:27 49.196264 -123.186783 191 28ft 18kts
12-Oct-18 18:28 49.191353 -123.186582 137 28ft 17kts
12-Oct-18 18:29 49.188988 -123.179638 98 28ft 21kts
12-Oct-18 18:30 49.187952 -123.170431 99 28ft 21kts
12-Oct-18 18:31 49.186510 -123.162101 137 28ft 16kts
12-Oct-18 18:32 49.186037 -123.172317 279 28ft 115kts
12-Oct-18 18:33 49.189201 -123.238147 259 1606ft 176kts
12-Oct-18 18:34 49.181367 -123.325927 255 3421ft 240kts
12-Oct-18 18:35 49.119954 -123.370981 189 6262ft 275kts
12-Oct-18 18:36 49.042519 -123.393600 191 9271ft 293kts
12-Oct-18 18:37 48.957722 -123.418136 193 11363ft 336kts
12-Oct-18 18:38 48.858810 -123.446544 194 13016ft 379kts
12-Oct-18 18:39 48.753426 -123.476763 196 15375ft 391kts
12-Oct-18 18:40 48.641229 -123.480932 182 17445ft 415kts
12-Oct-18 18:41 48.524162 -123.475206 184 19324ft 429kts
12-Oct-18 18:42 48.402752 -123.469754 184 21104ft 442kts
12-Oct-18 18:43 48.277989 -123.464196 184 22721ft 455kts
12-Oct-18 18:44 48.149641 -123.457998 183 24180ft 467kts
12-Oct-18 18:45 48.018702 -123.451642 184 25608ft 475kts
12-Oct-18 18:46 47.885822 -123.444989 183 27053ft 479kts
12-Oct-18 18:47 47.751757 -123.438442 183 28259ft 486kts
12-Oct-18 18:48 47.638558 -123.432968 183 29242ft 491kts
12-Oct-18 18:49 47.480724 -123.425292 183 31096ft 482kts
12-Oct-18 18:50 47.369177 -123.419932 183 32235ft 478kts
12-Oct-18 18:51 47.215376 -123.412553 183 33152ft 472kts
12-Oct-18 18:52 47.083909 -123.406447 183 33154ft 471kts
12-Oct-18 18:53 46.975036 -123.401506 183 33165ft 471kts
12-Oct-18 18:54 46.822194 -123.394596 183 33199ft 470kts
12-Oct-18 18:55 46.713666 -123.389642 182 33199ft 469kts
12-Oct-18 18:56 46.582965 -123.383750 182 33194ft 468kts
12-Oct-18 18:57 46.431241 -123.376885 182 33194ft 467kts
12-Oct-18 18:58 46.322845 -123.372167 182 33154ft 467kts
12-Oct-18 18:59 46.193242 -123.366334 182 33151ft 467kts
12-Oct-18 19:00 46.063534 -123.360651 182 33141ft 466kts
12-Oct-18 19:01 45.933933 -123.354963 181 33161ft 466kts
12-Oct-18 19:02 45.804237 -123.349245 181 33181ft 465kts
12-Oct-18 19:03 45.675223 -123.343606 181 33159ft 465kts
12-Oct-18 19:04 45.545712 -123.337999 181 33104ft 466kts
12-Oct-18 19:05 45.394644 -123.331475 181 33091ft 466kts
12-Oct-18 19:06 45.286566 -123.326884 181 33073ft 466kts
12-Oct-18 19:07 45.156851 -123.321318 181 33066ft 466kts
12-Oct-18 19:08 45.026916 -123.315711 181 33067ft 467kts
12-Oct-18 19:09 44.897363 -123.310271 181 33147ft 467kts
12-Oct-18 19:10 44.767342 -123.304892 181 33151ft 467kts
12-Oct-18 19:11 44.637495 -123.299295 181 33154ft 466kts
12-Oct-18 19:12 44.508033 -123.293918 182 33152ft 466kts
12-Oct-18 19:13 44.378739 -123.299196 185 33153ft 464kts
12-Oct-18 19:14 44.249506 -123.304868 185 33119ft 465kts
12-Oct-18 19:15 44.119920 -123.310816 185 33105ft 465kts
12-Oct-18 19:16 43.990371 -123.316554 185 33101ft 465kts
12-Oct-18 19:17 43.861290 -123.322285 185 33118ft 464kts
12-Oct-18 19:18 43.732010 -123.328086 185 33094ft 465kts
12-Oct-18 19:19 43.602658 -123.333749 185 33120ft 464kts
12-Oct-18 19:20 43.473267 -123.339493 184 33119ft 465kts
12-Oct-18 19:21 43.343991 -123.345172 185 33117ft 465kts
12-Oct-18 19:22 43.215030 -123.350732 184 33100ft 465kts
12-Oct-18 19:23 43.084948 -123.344439 178 33108ft 467kts
12-Oct-18 19:24 42.955245 -123.333997 179 33120ft 467kts
12-Oct-18 19:25 42.825872 -123.323651 179 33122ft 466kts
12-Oct-18 19:26 42.696142 -123.313460 178 33093ft 467kts
12-Oct-18 19:27 42.566766 -123.303316 178 33124ft 466kts
12-Oct-18 19:28 42.436998 -123.293182 178 33121ft 466kts
12-Oct-18 19:29 42.307191 -123.283057 178 33098ft 467kts
12-Oct-18 19:30 42.177674 -123.273013 178 33085ft 465kts
12-Oct-18 19:31 42.048422 -123.263042 178 33006ft 466kts
12-Oct-18 19:32 41.918661 -123.252987 178 32984ft 466kts
12-Oct-18 19:33 41.789546 -123.243166 178 33014ft 466kts
12-Oct-18 19:34 41.659654 -123.233267 178 33045ft 466kts
12-Oct-18 19:35 41.530077 -123.223405 178 33053ft 467kts
12-Oct-18 19:36 41.400635 -123.213558 177 33052ft 467kts
12-Oct-18 19:37 41.270790 -123.202013 176 33018ft 468kts
12-Oct-18 19:38 41.141080 -123.188189 176 33012ft 467kts
12-Oct-18 19:39 41.011836 -123.174714 176 32956ft 466kts
12-Oct-18 19:40 40.860539 -123.158925 175 32907ft 466kts
12-Oct-18 19:41 40.752907 -123.147844 175 32920ft 467kts
12-Oct-18 19:42 40.623123 -123.134421 175 32966ft 467kts
12-Oct-18 19:43 40.493327 -123.121061 175 32961ft 468kts
12-Oct-18 19:44 40.341761 -123.105531 175 32933ft 468kts
12-Oct-18 19:45 40.234025 -123.094525 175 32916ft 467kts
12-Oct-18 19:46 40.082819 -123.079214 175 32844ft 467kts
12-Oct-18 19:47 39.974789 -123.068216 174 32845ft 464kts
12-Oct-18 19:48 39.845861 -123.055237 174 32875ft 470kts
12-Oct-18 19:49 39.714983 -123.042070 174 32896ft 471kts
12-Oct-18 19:50 39.584680 -123.029004 174 32913ft 471kts
12-Oct-18 19:51 39.453639 -123.015927 174 32876ft 471kts
12-Oct-18 19:52 39.323211 -123.002959 174 32869ft 470kts
12-Oct-18 19:53 39.193145 -122.990094 174 32865ft 467kts
12-Oct-18 19:54 39.064176 -122.977412 173 32747ft 465kts
12-Oct-18 19:55 38.937701 -122.964944 173 31736ft 451kts
12-Oct-18 19:56 38.822924 -122.944377 164 29946ft 443kts
12-Oct-18 19:57 38.707729 -122.909720 163 27895ft 441kts
12-Oct-18 19:58 38.588921 -122.874801 163 25799ft 432kts
12-Oct-18 19:59 38.473524 -122.840914 163 23828ft 417kts
12-Oct-18 20:00 38.362119 -122.808103 163 21855ft 404kts
12-Oct-18 20:01 38.254714 -122.776718 163 20038ft 386kts
12-Oct-18 20:02 38.151908 -122.746714 163 18247ft 372kts
12-Oct-18 20:03 38.053214 -122.718106 163 16609ft 356kts
12-Oct-18 20:04 37.958462 -122.690642 163 15119ft 339kts
12-Oct-18 20:05 37.875782 -122.650250 136 13808ft 313kts
12-Oct-18 20:06 37.811278 -122.579754 137 12493ft 302kts
12-Oct-18 20:07 37.749928 -122.515039 138 11310ft 298kts
12-Oct-18 20:08 37.690957 -122.452387 138 10999ft 300kts
12-Oct-18 20:09 37.627199 -122.384627 138 10994ft 292kts
12-Oct-18 20:10 37.562386 -122.338711 152 10578ft 254kts
12-Oct-18 20:11 37.501301 -122.296400 131 9265ft 255kts
12-Oct-18 20:12 37.465481 -122.220010 118 8024ft 252kts
12-Oct-18 20:13 37.431766 -122.143443 118 6828ft 248kts
12-Oct-18 20:14 37.419481 -122.065678 46 5579ft 233kts
12-Oct-18 20:15 37.473873 -122.072790 323 4272ft 222kts
12-Oct-18 20:16 37.516641 -122.131772 298 3885ft 214kts
12-Oct-18 20:17 37.543746 -122.196484 297 2877ft 201kts
12-Oct-18 20:18 37.566767 -122.251262 298 1935ft 157kts
12-Oct-18 20:19 37.585137 -122.295356 299 1084ft 140kts
12-Oct-18 20:20 37.602829 -122.337040 298 479ft 130kts
12-Oct-18 20:21 37.618860 -122.375307 297 27ft 78kts
12-Oct-18 20:22 37.622314 -122.386009 211 27ft 14kts
12-Oct-18 20:23 37.622612 -122.389666 259 27ft 10kts
12-Oct-18 20:24 37.621224 -122.390994 119 27ft 2kts
12-Oct-18 20:25 37.621079 -122.390665 119 27ft 0kts
12-Oct-18 20:26 37.621079 -122.390665 119 27ft 0kts
12-Oct-18 20:27 37.621079 -122.390665 119 27ft 0kts
12-Oct-18 20:28 37.621079 -122.390665 119 27ft 0kts
12-Oct-18 20:29 37.621079 -122.390665 119 27ft 0kts
12-Oct-18 20:30 37.621079 -122.390665 119 27ft 0kts
12-Oct-18 20:31 37.621079 -122.390665 119 27ft 0kts
12-Oct-18 20:32 37.621079 -122.390665 119 27ft 0kts
12-Oct-18 20:33 37.621079 -122.390665 119 27ft 0kts
12-Oct-18 20:34 37.621079 -122.390665 119 27ft 0kts
12-Oct-18 20:35 37.621079 -122.390665 119 27ft 0kts
12-Oct-18 20:36 37.621079 -122.390665 119 27ft 0kts

Navigation Log

Ident Type
Flight plan parsing failed, navigation log unavailable